logo
Search for airport 
image banner adimage banner adimage banner ad
image banner ad

KFSO - Franklin County State

Located in Highgate, United States

ICAO - FSO, IATA -

Data provided by Airmate  

General information

Coordinates: N44°56'25" W73°5'51"
Elevation is 227 feet MSL.
Magnetic variation is -16° East
View others Airports in Vermont

Operational data

Special qualification required
Current time UTC:
Current local time:
Weather
METAR: KFSO 270415Z AUTO 15003KT 10SM SCT070 18/13 A2990 RMK AO2 T01800126
View NOTAMs / SUP AIP / TFR affecting this airport [VIEW]
Communications frequencies: [VIEW]

Runways:

RWY identifierQFULength (ft)Width (ft)SurfaceLDA (ft)
01349°300160ASPH
19169°300160ASPH

Airport contact information

Address: Highgate United States

Other aviation service providers

Flight schools

Border Air Ltd

Border Air Ltd
borderairltd@gmail.com+1(802)868-2822

Satellite view of KFSO